createdAt,value
2022-08-05T00:00:21.087Z,64.36
2022-08-05T00:02:51.743Z,64.06
2022-08-05T00:06:01.720Z,63.72
2022-08-05T00:08:06.330Z,64.30
2022-08-05T00:10:52.705Z,64.11
2022-08-05T00:13:19.836Z,64.45
2022-08-05T00:15:55.877Z,63.68
2022-08-05T00:18:26.321Z,63.90
2022-08-05T00:20:55.854Z,64.01
2022-08-05T00:23:44.415Z,64.28
2022-08-05T00:26:10.128Z,64.97
2022-08-05T00:28:37.826Z,64.37
2022-08-05T00:31:07.577Z,64.04
2022-08-05T00:34:55.493Z,63.79
2022-08-05T00:37:11.418Z,63.99
2022-08-05T00:39:13.389Z,64.82
2022-08-05T00:41:51.966Z,64.89
2022-08-05T00:44:23.160Z,65.27
2022-08-05T00:46:54.282Z,64.17
2022-08-05T00:49:32.835Z,64.63
2022-08-05T00:52:10.883Z,64.69
2022-08-05T00:54:38.807Z,63.39
2022-08-05T00:57:05.680Z,63.83
2022-08-05T00:59:34.479Z,62.99
2022-08-05T01:02:10.927Z,64.02
2022-08-05T01:04:42.223Z,63.57
2022-08-05T01:07:23.485Z,63.41
2022-08-05T01:09:55.883Z,63.47
2022-08-05T01:12:24.845Z,63.78
2022-08-05T01:15:04.087Z,63.97
2022-08-05T01:17:40.144Z,64.39
2022-08-05T01:20:27.126Z,64.44
2022-08-05T01:23:15.120Z,64.71
2022-08-05T01:25:58.427Z,64.77
2022-08-05T01:28:28.956Z,64.34
2022-08-05T01:31:01.043Z,64.04
2022-08-05T01:33:35.602Z,64.67
2022-08-05T01:36:12.826Z,64.98
2022-08-05T01:38:44.007Z,66.35
2022-08-05T01:41:13.943Z,66.48
2022-08-05T01:43:43.057Z,67.41
2022-08-05T01:46:41.231Z,67.55
2022-08-05T01:48:58.768Z,67.51
2022-08-05T01:51:29.315Z,66.60
2022-08-05T01:53:59.318Z,66.49
2022-08-05T01:58:11.869Z,66.59
2022-08-05T01:59:21.659Z,66.30
2022-08-05T02:01:51.493Z,66.77
2022-08-05T02:04:23.617Z,65.52
2022-08-05T02:06:50.801Z,65.30
2022-08-05T02:09:17.386Z,65.01
2022-08-05T02:11:52.340Z,65.35
2022-08-05T02:14:27.373Z,65.48
2022-08-05T02:16:59.476Z,65.06
2022-08-05T02:19:34.491Z,65.75
2022-08-05T02:22:08.966Z,66.52
2022-08-05T02:24:51.357Z,66.14
2022-08-05T02:27:30.100Z,66.91
2022-08-05T02:30:12.102Z,68.40
2022-08-05T02:32:40.984Z,69.00
2022-08-05T02:35:14.268Z,69.53
2022-08-05T02:37:43.114Z,68.68
2022-08-05T02:40:16.806Z,69.07
2022-08-05T02:42:44.646Z,68.47
2022-08-05T02:45:24.213Z,69.15
2022-08-05T02:48:09.878Z,69.38
2022-08-05T02:50:43.632Z,68.69
2022-08-05T02:53:19.128Z,68.43
2022-08-05T02:55:52.017Z,68.81
2022-08-05T02:58:27.145Z,68.52
2022-08-05T03:00:58.906Z,67.92
2022-08-05T03:03:27.671Z,68.00
2022-08-05T03:06:54.783Z,67.55
2022-08-05T03:08:52.171Z,67.84
2022-08-05T03:11:55.115Z,67.49
2022-08-05T03:14:08.033Z,68.74
2022-08-05T03:16:36.184Z,72.60
2022-08-05T03:19:12.609Z,76.17
2022-08-05T03:21:48.766Z,77.17
2022-08-05T03:24:18.432Z,75.64
2022-08-05T03:26:56.375Z,76.84
2022-08-05T03:29:45.781Z,77.58
2022-08-05T03:32:15.605Z,78.12
2022-08-05T03:34:49.592Z,77.18
2022-08-05T03:37:18.675Z,76.93
2022-08-05T03:40:06.771Z,75.53
2022-08-05T03:42:41.835Z,74.66
2022-08-05T03:45:22.041Z,73.92
2022-08-05T03:47:50.920Z,73.51
2022-08-05T03:50:17.715Z,73.55
2022-08-05T03:55:00.395Z,73.16
2022-08-05T03:56:05.556Z,73.13
2022-08-05T03:58:32.723Z,72.92
2022-08-05T04:01:02.166Z,73.02
2022-08-05T04:03:38.070Z,73.08
2022-08-05T04:06:06.284Z,72.25
2022-08-05T04:08:37.127Z,72.58
2022-08-05T04:11:04.794Z,72.10
2022-08-05T04:13:50.017Z,72.06
2022-08-05T04:16:24.121Z,71.99
2022-08-05T04:18:54.198Z,71.77
2022-08-05T04:22:09.623Z,71.41
2022-08-05T04:24:08.879Z,71.93
2022-08-05T04:26:35.742Z,72.61
2022-08-05T04:29:07.050Z,72.24
2022-08-05T04:31:37.575Z,71.80
2022-08-05T04:34:29.555Z,71.39
2022-08-05T04:36:53.752Z,72.27
2022-08-05T04:39:20.982Z,72.21
2022-08-05T04:41:48.742Z,72.01
2022-08-05T04:44:28.960Z,71.99
2022-08-05T04:46:56.426Z,72.16
2022-08-05T04:49:24.796Z,72.17
2022-08-05T04:52:06.149Z,72.49
2022-08-05T04:54:34.375Z,72.75
2022-08-05T04:57:01.310Z,72.90
2022-08-05T04:59:38.391Z,71.80
2022-08-05T05:02:36.082Z,71.58
2022-08-05T05:05:02.155Z,70.30
2022-08-05T05:07:31.922Z,70.44
2022-08-05T05:09:59.066Z,70.13
2022-08-05T05:12:28.583Z,70.46
2022-08-05T05:14:55.133Z,70.51
2022-08-05T05:17:24.488Z,71.03
2022-08-05T05:19:54.823Z,70.51
2022-08-05T05:22:24.551Z,70.92
2022-08-05T05:24:56.916Z,70.81
2022-08-05T05:27:41.294Z,69.95
2022-08-05T05:30:15.383Z,70.30
2022-08-05T05:32:42.399Z,70.25
2022-08-05T05:35:10.909Z,69.56
2022-08-05T05:38:00.305Z,69.35
2022-08-05T05:40:29.367Z,69.70
2022-08-05T05:42:57.427Z,69.63
2022-08-05T05:45:24.927Z,69.34
2022-08-05T05:48:06.795Z,70.07
2022-08-05T05:50:44.084Z,69.57
2022-08-05T05:53:22.062Z,69.48
2022-08-05T05:55:51.689Z,68.58
2022-08-05T05:58:32.002Z,68.77
2022-08-05T06:01:12.072Z,69.12
2022-08-05T06:04:00.996Z,67.89
2022-08-05T06:06:33.096Z,67.99
2022-08-05T06:09:01.606Z,67.91
2022-08-05T06:11:30.439Z,68.10
2022-08-05T06:13:57.095Z,68.27
2022-08-05T06:16:30.495Z,68.23
2022-08-05T06:18:59.939Z,67.95
2022-08-05T06:21:36.152Z,68.01
2022-08-05T06:24:06.000Z,68.15
2022-08-05T06:26:35.087Z,69.67
2022-08-05T06:29:03.486Z,70.02
2022-08-05T06:31:33.760Z,69.43
2022-08-05T06:34:06.080Z,69.24
2022-08-05T06:36:37.345Z,69.97
2022-08-05T06:39:22.524Z,69.76
2022-08-05T06:41:54.172Z,69.98
2022-08-05T06:44:22.063Z,69.26
2022-08-05T06:46:51.039Z,68.83
2022-08-05T06:49:18.891Z,68.68
2022-08-05T06:51:49.248Z,68.89
2022-08-05T06:54:19.298Z,69.70
2022-08-05T06:56:54.994Z,69.58
2022-08-05T06:59:42.391Z,72.21
2022-08-05T07:02:22.997Z,73.59
2022-08-05T07:04:50.725Z,73.87
2022-08-05T07:07:24.073Z,74.13
2022-08-05T07:10:03.575Z,73.15
2022-08-05T07:12:30.318Z,74.38
2022-08-05T07:14:56.923Z,73.82
2022-08-05T07:18:02.124Z,74.25
2022-08-05T07:20:32.408Z,74.71
2022-08-05T07:22:58.507Z,74.35
2022-08-05T07:25:54.990Z,74.60
2022-08-05T07:28:17.087Z,74.93
2022-08-05T07:30:44.037Z,76.36
2022-08-05T07:33:17.367Z,75.85
2022-08-05T07:36:04.971Z,74.95
2022-08-05T07:38:43.636Z,74.69
2022-08-05T07:42:07.246Z,73.95
2022-08-05T07:43:59.730Z,75.56
2022-08-05T07:46:27.953Z,75.29
2022-08-05T07:49:03.505Z,75.55
2022-08-05T07:51:36.820Z,76.36
2022-08-05T07:54:09.729Z,77.36
2022-08-05T07:57:00.264Z,76.41
2022-08-05T07:59:38.638Z,75.63
2022-08-05T08:02:15.374Z,76.28
2022-08-05T08:04:46.353Z,76.49
2022-08-05T08:07:13.514Z,76.44
2022-08-05T08:09:41.498Z,76.00
2022-08-05T08:12:17.159Z,76.28
2022-08-05T08:14:55.171Z,76.13
2022-08-05T08:17:21.949Z,76.56
2022-08-05T08:20:21.241Z,75.61
2022-08-05T08:22:35.497Z,75.79
2022-08-05T08:25:15.829Z,75.53
2022-08-05T08:27:44.944Z,76.52
2022-08-05T08:30:29.858Z,75.64
2022-08-05T08:33:01.703Z,75.73
2022-08-05T08:35:35.219Z,75.11
2022-08-05T08:38:08.455Z,75.42
2022-08-05T08:40:39.964Z,74.35
2022-08-05T08:45:20.237Z,74.71
2022-08-05T08:45:57.015Z,73.75
2022-08-05T08:49:03.010Z,74.80
2022-08-05T08:52:01.836Z,74.69
2022-08-05T08:54:00.265Z,75.27
2022-08-05T08:56:29.646Z,74.38
2022-08-05T08:58:56.773Z,74.90
2022-08-05T09:01:25.168Z,74.61
2022-08-05T09:03:57.628Z,74.19
2022-08-05T09:06:29.422Z,73.00
2022-08-05T09:08:59.386Z,71.84
2022-08-05T09:11:51.637Z,69.97
2022-08-05T09:14:58.471Z,69.04
2022-08-05T09:17:02.048Z,67.89
2022-08-05T09:19:36.732Z,67.27
2022-08-05T09:22:31.090Z,65.71
2022-08-05T09:24:59.611Z,65.79
2022-08-05T09:28:05.690Z,65.34
2022-08-05T09:30:23.562Z,64.48
2022-08-05T09:32:51.373Z,63.71
2022-08-05T09:35:26.570Z,64.12
2022-08-05T09:38:12.516Z,64.50
2022-08-05T09:40:44.605Z,63.21
2022-08-05T09:43:40.578Z,63.62
2022-08-05T09:46:27.644Z,63.16
2022-08-05T09:49:08.239Z,64.69
2022-08-05T09:51:41.977Z,64.95
2022-08-05T09:54:10.277Z,65.32
2022-08-05T09:56:38.180Z,64.76
2022-08-05T09:59:07.437Z,65.47
2022-08-05T10:01:39.635Z,64.37
2022-08-05T10:04:10.549Z,63.54
2022-08-05T10:06:37.751Z,63.79
2022-08-05T10:09:25.030Z,63.73
2022-08-05T10:11:55.315Z,62.86
2022-08-05T10:14:26.661Z,61.95
2022-08-05T10:16:56.812Z,60.86
2022-08-05T10:19:31.828Z,58.67
2022-08-05T10:22:15.723Z,57.86
2022-08-05T10:24:56.467Z,58.25
2022-08-05T10:27:26.288Z,59.26
2022-08-05T10:32:47.699Z,57.67
2022-08-05T10:33:01.313Z,56.84
2022-08-05T10:35:33.852Z,58.41
2022-08-05T10:38:12.601Z,56.12
2022-08-05T10:40:45.037Z,54.51
2022-08-05T10:43:30.891Z,55.05
2022-08-05T10:46:06.282Z,52.52
2022-08-05T10:48:57.012Z,52.04
2022-08-05T10:51:28.935Z,51.05
2022-08-05T10:54:00.940Z,48.50
2022-08-05T10:56:30.249Z,50.53
2022-08-05T10:59:11.477Z,51.75
2022-08-05T11:01:54.189Z,49.04
2022-08-05T11:04:31.808Z,49.40
2022-08-05T11:07:07.497Z,50.03
2022-08-05T11:09:46.559Z,49.26
2022-08-05T11:12:50.728Z,48.90
2022-08-05T11:15:59.984Z,47.13
2022-08-05T11:18:26.592Z,45.67
2022-08-05T11:20:54.906Z,48.11
2022-08-05T11:24:04.528Z,49.43
2022-08-05T11:26:28.466Z,48.89
2022-08-05T11:29:06.659Z,50.72
2022-08-05T11:31:56.486Z,50.18
2022-08-05T11:34:37.481Z,48.77
2022-08-05T11:38:28.776Z,48.21
2022-08-05T11:39:55.311Z,48.32
2022-08-05T11:42:28.384Z,48.45
2022-08-05T11:45:01.669Z,48.52
2022-08-05T11:47:48.996Z,48.58
2022-08-05T11:50:17.552Z,48.32
2022-08-05T11:52:48.208Z,48.16
2022-08-05T11:55:15.615Z,49.37
2022-08-05T11:58:10.936Z,48.50
2022-08-05T12:00:32.571Z,46.82
2022-08-05T12:03:24.078Z,46.45
2022-08-05T12:06:00.838Z,45.37
2022-08-05T12:08:32.700Z,44.30
2022-08-05T12:11:03.436Z,44.13
2022-08-05T12:13:48.809Z,43.61
2022-08-05T12:16:19.093Z,43.42
2022-08-05T12:18:53.363Z,42.84
2022-08-05T12:21:23.723Z,42.37
2022-08-05T12:24:00.138Z,42.62
2022-08-05T12:26:32.567Z,43.98
2022-08-05T12:28:59.795Z,43.03
2022-08-05T12:31:33.533Z,44.17
2022-08-05T12:34:20.663Z,43.13
2022-08-05T12:36:49.820Z,43.15
2022-08-05T12:39:19.367Z,41.87
2022-08-05T12:41:46.053Z,44.60
2022-08-05T12:44:28.642Z,45.65
2022-08-05T12:47:01.631Z,45.03
2022-08-05T12:50:04.430Z,42.91
2022-08-05T12:52:30.396Z,42.30
2022-08-05T12:55:17.054Z,41.05
2022-08-05T12:58:48.634Z,42.57
2022-08-05T13:02:03.769Z,41.64
2022-08-05T13:03:19.217Z,42.07
2022-08-05T13:05:47.119Z,42.35
2022-08-05T13:08:18.553Z,42.56
2022-08-05T13:10:50.510Z,42.23
2022-08-05T13:14:06.170Z,40.71
2022-08-05T13:16:12.802Z,40.02
2022-08-05T13:18:50.843Z,38.52
2022-08-05T13:21:17.431Z,39.95
2022-08-05T13:23:50.992Z,41.64
2022-08-05T13:26:24.073Z,42.46
2022-08-05T13:28:57.436Z,42.09
2022-08-05T13:31:33.739Z,43.08
2022-08-05T13:34:25.160Z,45.74
2022-08-05T13:36:53.060Z,45.89
2022-08-05T13:40:14.514Z,44.76
2022-08-05T13:42:14.215Z,43.02
2022-08-05T13:44:45.327Z,41.68
2022-08-05T13:47:35.501Z,41.84
2022-08-05T13:50:04.384Z,40.98
2022-08-05T13:52:35.299Z,41.86
2022-08-05T13:55:07.440Z,42.53
2022-08-05T13:57:49.059Z,42.73
2022-08-05T14:00:41.761Z,42.74
2022-08-05T14:03:16.422Z,41.93
2022-08-05T14:06:04.835Z,41.35
2022-08-05T14:08:32.582Z,40.11
2022-08-05T14:11:20.510Z,39.93
2022-08-05T14:13:57.753Z,40.06
2022-08-05T14:16:27.817Z,40.51
2022-08-05T14:23:51.648Z,37.54
2022-08-05T14:25:22.670Z,37.20
2022-08-05T14:49:56.179Z,36.85
2022-08-05T14:52:36.271Z,36.60
2022-08-05T14:55:05.129Z,36.08
2022-08-05T14:57:34.107Z,36.62
2022-08-05T15:00:19.892Z,37.29
2022-08-05T15:02:46.814Z,37.58
2022-08-05T15:05:15.545Z,37.49
2022-08-05T15:08:11.180Z,37.35
2022-08-05T15:10:40.020Z,37.35
2022-08-05T15:13:09.909Z,38.79
2022-08-05T15:15:55.203Z,38.36
2022-08-05T15:18:23.238Z,39.14
2022-08-05T15:20:51.471Z,38.60
2022-08-05T15:23:22.575Z,38.24
2022-08-05T15:26:37.957Z,38.20
2022-08-05T15:29:56.817Z,37.49
2022-08-05T15:41:20.730Z,36.66
2022-08-05T15:52:03.799Z,32.20
2022-08-05T15:54:53.760Z,32.81
2022-08-05T15:57:50.155Z,33.19
2022-08-05T16:00:26.011Z,33.04
2022-08-05T16:03:28.469Z,32.81
2022-08-05T16:09:16.734Z,33.26
2022-08-05T16:11:53.078Z,33.21
2022-08-05T16:14:21.056Z,33.28
2022-08-05T16:27:47.450Z,32.23
2022-08-05T16:30:33.518Z,32.24
2022-08-05T16:33:01.246Z,32.27
2022-08-05T16:35:33.615Z,31.96
2022-08-05T16:38:15.981Z,32.47
2022-08-05T16:40:59.556Z,32.68
2022-08-05T16:43:29.434Z,32.17
2022-08-05T16:46:04.781Z,32.67
2022-08-05T16:48:37.010Z,32.90
2022-08-05T16:51:09.105Z,32.57
2022-08-05T16:54:05.366Z,32.42
2022-08-05T16:56:25.160Z,33.23
2022-08-05T16:58:51.893Z,33.18
2022-08-05T17:01:18.851Z,32.99
2022-08-05T17:03:45.888Z,32.33
2022-08-05T17:06:13.259Z,32.28
2022-08-05T17:08:53.358Z,32.26
2022-08-05T17:11:25.337Z,32.59
2022-08-05T17:16:39.230Z,33.76
2022-08-05T17:19:07.472Z,33.57
2022-08-05T17:21:37.545Z,32.93
2022-08-05T17:24:28.266Z,33.65
2022-08-05T17:31:56.523Z,33.60
2022-08-05T17:34:55.055Z,33.00
2022-08-05T17:37:40.463Z,32.85
2022-08-05T17:40:14.916Z,33.09
2022-08-05T17:42:50.513Z,33.06
2022-08-05T17:45:21.029Z,32.58
2022-08-05T17:47:54.506Z,33.25
2022-08-05T17:50:30.958Z,34.35
2022-08-05T17:52:59.694Z,33.79
2022-08-05T17:55:37.639Z,34.11
2022-08-05T17:58:09.691Z,34.44
2022-08-05T18:00:44.286Z,34.02
2022-08-05T18:03:28.028Z,34.66
2022-08-05T18:06:01.533Z,34.64
2022-08-05T18:08:28.648Z,35.05
2022-08-05T18:10:57.041Z,36.06
2022-08-05T18:13:25.712Z,36.42
2022-08-05T18:15:52.713Z,35.96
2022-08-05T18:18:26.355Z,35.73
2022-08-05T18:20:53.801Z,36.52
2022-08-05T18:23:21.742Z,37.13
2022-08-05T18:25:48.608Z,37.08
2022-08-05T18:28:28.510Z,37.44
2022-08-05T18:30:55.165Z,38.00
2022-08-05T18:33:24.038Z,38.29
2022-08-05T18:36:03.670Z,38.46
2022-08-05T18:38:33.822Z,38.10
2022-08-05T18:42:00.263Z,37.95
2022-08-05T18:43:48.411Z,38.32
2022-08-05T18:46:15.744Z,38.95
2022-08-05T18:48:46.938Z,39.37
2022-08-05T18:52:04.620Z,39.63
2022-08-05T18:54:02.403Z,39.74
2022-08-05T18:56:29.332Z,40.01
2022-08-05T18:59:01.207Z,40.48
2022-08-05T19:01:47.292Z,40.24
2022-08-05T19:04:15.049Z,40.34
2022-08-05T19:06:53.813Z,39.92
2022-08-05T19:09:21.417Z,40.39
2022-08-05T19:11:59.941Z,40.61
2022-08-05T19:14:44.932Z,40.72
2022-08-05T19:17:14.120Z,41.50
2022-08-05T19:19:46.317Z,42.01
2022-08-05T19:22:17.203Z,42.04
2022-08-05T19:24:56.313Z,42.29
2022-08-05T19:27:24.178Z,42.07
2022-08-05T19:29:54.833Z,42.07
2022-08-05T19:32:23.266Z,42.11
2022-08-05T19:34:55.060Z,42.28
2022-08-05T19:37:47.291Z,42.18
2022-08-05T19:40:11.163Z,42.55
2022-08-05T19:42:38.758Z,42.71
2022-08-05T19:45:06.758Z,42.95
2022-08-05T19:47:34.079Z,43.25
2022-08-05T19:50:01.205Z,43.30
2022-08-05T19:52:31.618Z,44.18
2022-08-05T19:55:00.448Z,44.23
2022-08-05T19:57:47.629Z,44.52
2022-08-05T20:00:20.756Z,44.56
2022-08-05T20:02:47.495Z,44.88
2022-08-05T20:05:16.618Z,44.58
2022-08-05T20:07:57.696Z,44.87
2022-08-05T20:10:26.051Z,44.67
2022-08-05T20:12:52.902Z,45.64
2022-08-05T20:15:23.330Z,45.85
2022-08-05T20:21:27.645Z,47.04
2022-08-05T20:23:59.042Z,47.47
2022-08-05T20:26:32.193Z,47.32
2022-08-05T20:29:00.692Z,47.46
2022-08-05T20:31:42.995Z,47.98
2022-08-05T20:34:15.172Z,48.07
2022-08-05T20:36:43.514Z,48.51
2022-08-05T20:39:13.234Z,49.13
2022-08-05T20:41:44.334Z,48.90
2022-08-05T20:44:29.730Z,48.57
2022-08-05T20:46:58.422Z,48.97
2022-08-05T20:53:16.188Z,49.04
2022-08-05T20:56:08.838Z,49.80
2022-08-05T20:58:36.182Z,49.69
2022-08-05T21:01:04.196Z,50.44
2022-08-05T21:03:34.188Z,50.14
2022-08-05T21:06:01.822Z,50.57
2022-08-05T21:08:56.306Z,50.54
2022-08-05T21:12:09.588Z,50.33
2022-08-05T21:14:11.249Z,50.48
2022-08-05T21:16:39.267Z,50.80
2022-08-05T21:19:05.910Z,50.83
2022-08-05T21:21:44.149Z,51.30
2022-08-05T21:24:17.110Z,50.42
2022-08-05T21:26:58.017Z,51.37
2022-08-05T21:29:32.126Z,51.25
2022-08-05T21:31:59.592Z,51.24
2022-08-05T21:34:28.333Z,52.04
2022-08-05T21:36:58.552Z,51.77
2022-08-05T21:39:26.987Z,52.04
2022-08-05T21:42:01.538Z,52.11
2022-08-05T21:44:29.149Z,52.05
2022-08-05T21:46:56.358Z,52.39
2022-08-05T21:50:00.498Z,52.49
2022-08-05T21:52:22.082Z,52.49
2022-08-05T21:56:04.219Z,52.98
2022-08-05T21:58:15.764Z,52.62
2022-08-05T22:00:51.340Z,53.16
2022-08-05T22:03:18.460Z,53.12
2022-08-05T22:06:05.507Z,53.06
2022-08-05T22:08:45.281Z,53.12
2022-08-05T22:11:18.782Z,53.26
2022-08-05T22:14:38.821Z,53.82
2022-08-05T22:17:07.645Z,53.60
2022-08-05T22:20:01.701Z,53.80
2022-08-05T22:22:28.001Z,53.59
2022-08-05T22:24:56.114Z,54.08
2022-08-05T22:30:36.851Z,54.04
2022-08-05T22:33:15.438Z,54.52
2022-08-05T22:35:48.617Z,54.23
2022-08-05T22:38:29.044Z,54.83
2022-08-05T22:40:55.772Z,54.92
2022-08-05T22:43:37.345Z,54.19
2022-08-05T22:46:13.110Z,54.39
2022-08-05T22:48:43.265Z,54.30
2022-08-05T22:54:19.306Z,54.25
2022-08-05T23:00:23.084Z,53.97
2022-08-05T23:02:50.688Z,53.96
2022-08-05T23:05:21.966Z,54.61
2022-08-05T23:07:50.441Z,54.32
2022-08-05T23:10:19.889Z,54.34
2022-08-05T23:12:47.422Z,54.70
2022-08-05T23:15:18.073Z,54.73
2022-08-05T23:18:01.435Z,54.52
2022-08-05T23:20:31.374Z,54.59
2022-08-05T23:22:59.041Z,55.33
2022-08-05T23:25:54.723Z,55.27
2022-08-05T23:28:15.954Z,55.13
2022-08-05T23:30:53.488Z,55.43
2022-08-05T23:33:22.526Z,56.04
2022-08-05T23:35:56.021Z,55.27
2022-08-05T23:38:24.196Z,55.71
2022-08-05T23:40:52.801Z,55.60
2022-08-05T23:43:24.826Z,55.60
2022-08-05T23:46:22.620Z,55.60
2022-08-05T23:49:00.678Z,56.48
2022-08-05T23:51:31.217Z,56.41
2022-08-05T23:54:01.403Z,56.71
2022-08-05T23:56:28.143Z,56.65
2022-08-05T23:58:58.725Z,56.54
